sensor_id;sensor_type;location;lat;lon;timestamp;pressure;altitude;pressure_sealevel;temperature;humidity
28432;BME280;15664;51.302;7.744;2023-02-28T00:00:18;83922.97;;;-146.98;79.71
28432;BME280;15664;51.302;7.744;2023-02-28T00:02:45;83922.97;;;-146.98;79.81
28432;BME280;15664;51.302;7.744;2023-02-28T00:05:13;83922.97;;;-146.98;79.90
28432;BME280;15664;51.302;7.744;2023-02-28T00:07:39;83947.41;;;-146.98;80.07
28432;BME280;15664;51.302;7.744;2023-02-28T00:10:06;83929.09;;;-146.98;80.00
28432;BME280;15664;51.302;7.744;2023-02-28T00:12:33;83947.41;;;-146.98;80.05
28432;BME280;15664;51.302;7.744;2023-02-28T00:14:59;83892.44;;;-146.98;80.37
28432;BME280;15664;51.302;7.744;2023-02-28T00:17:24;83939.28;;;-146.98;80.76
28432;BME280;15664;51.302;7.744;2023-02-28T00:19:50;83967.78;;;-146.98;81.03
28432;BME280;15664;51.302;7.744;2023-02-28T00:22:18;83959.63;;;-146.98;81.19
28432;BME280;15664;51.302;7.744;2023-02-28T00:24:44;83988.16;;;-146.98;81.62
28432;BME280;15664;51.302;7.744;2023-02-28T00:27:10;83959.63;;;-146.98;81.81
28432;BME280;15664;51.302;7.744;2023-02-28T00:29:36;83971.88;;;-146.98;81.70
28432;BME280;15664;51.302;7.744;2023-02-28T00:32:03;83975.94;;;-146.98;81.64
28432;BME280;15664;51.302;7.744;2023-02-28T00:34:29;83965.75;;;-146.98;81.58
28432;BME280;15664;51.302;7.744;2023-02-28T00:36:55;83925.03;;;-146.98;81.75
28432;BME280;15664;51.302;7.744;2023-02-28T00:39:21;83951.50;;;-146.98;81.89
28432;BME280;15664;51.302;7.744;2023-02-28T00:41:47;83994.28;;;-146.98;81.84
28432;BME280;15664;51.302;7.744;2023-02-28T00:44:13;83945.38;;;-146.98;81.84
28432;BME280;15664;51.302;7.744;2023-02-28T00:46:38;83937.25;;;-146.98;81.64
28432;BME280;15664;51.302;7.744;2023-02-28T00:49:04;83967.78;;;-146.98;81.23
28432;BME280;15664;51.302;7.744;2023-02-28T00:51:29;83980.00;;;-146.98;80.78
28432;BME280;15664;51.302;7.744;2023-02-28T00:53:56;83980.00;;;-146.98;80.65
28432;BME280;15664;51.302;7.744;2023-02-28T00:56:22;83977.97;;;-146.98;80.75
28432;BME280;15664;51.302;7.744;2023-02-28T00:58:48;83967.78;;;-146.98;80.88
28432;BME280;15664;51.302;7.744;2023-02-28T01:01:14;83951.50;;;-146.98;80.83
28432;BME280;15664;51.302;7.744;2023-02-28T01:03:39;83996.31;;;-146.98;80.93
28432;BME280;15664;51.302;7.744;2023-02-28T01:06:05;84000.38;;;-146.98;81.09
28432;BME280;15664;51.302;7.744;2023-02-28T01:08:30;83971.88;;;-146.98;81.29
28432;BME280;15664;51.302;7.744;2023-02-28T01:10:56;83984.09;;;-146.98;81.18
28432;BME280;15664;51.302;7.744;2023-02-28T01:13:22;83975.94;;;-146.98;80.58
28432;BME280;15664;51.302;7.744;2023-02-28T01:15:51;83988.16;;;-146.98;80.09
28432;BME280;15664;51.302;7.744;2023-02-28T01:18:19;83996.31;;;-146.98;79.46
28432;BME280;15664;51.302;7.744;2023-02-28T01:20:46;83943.34;;;-146.98;79.30
28432;BME280;15664;51.302;7.744;2023-02-28T01:23:11;84006.50;;;-146.98;77.79
28432;BME280;15664;51.302;7.744;2023-02-28T01:25:38;83996.31;;;-146.98;76.51
28432;BME280;15664;51.302;7.744;2023-02-28T01:28:04;84010.56;;;-146.98;74.59
28432;BME280;15664;51.302;7.744;2023-02-28T01:30:31;84028.91;;;-146.98;73.49
28432;BME280;15664;51.302;7.744;2023-02-28T01:32:56;83963.72;;;-146.98;73.11
28432;BME280;15664;51.302;7.744;2023-02-28T01:35:24;83955.56;;;-146.98;73.02
28432;BME280;15664;51.302;7.744;2023-02-28T01:37:49;83949.47;;;-146.98;72.87
28432;BME280;15664;51.302;7.744;2023-02-28T01:40:15;83971.88;;;-146.98;71.99
28432;BME280;15664;51.302;7.744;2023-02-28T01:42:40;83951.50;;;-146.98;71.43
28432;BME280;15664;51.302;7.744;2023-02-28T01:45:29;83947.41;;;-146.98;71.26
28432;BME280;15664;51.302;7.744;2023-02-28T01:48:01;83965.75;;;-146.98;70.72
28432;BME280;15664;51.302;7.744;2023-02-28T01:50:31;83955.56;;;-146.98;70.76
28432;BME280;15664;51.302;7.744;2023-02-28T01:53:02;83969.81;;;-146.98;70.29
28432;BME280;15664;51.302;7.744;2023-02-28T01:55:30;84000.38;;;-146.98;70.60
28432;BME280;15664;51.302;7.744;2023-02-28T01:58:00;84014.63;;;-146.98;70.42
28432;BME280;15664;51.302;7.744;2023-02-28T02:00:28;83947.41;;;-146.98;70.14
28432;BME280;15664;51.302;7.744;2023-02-28T02:03:15;83955.56;;;-146.98;70.01
28432;BME280;15664;51.302;7.744;2023-02-28T02:05:45;83945.38;;;-146.98;69.92
28432;BME280;15664;51.302;7.744;2023-02-28T02:08:28;83912.78;;;-146.98;69.73
28432;BME280;15664;51.302;7.744;2023-02-28T02:11:01;83939.28;;;-146.98;69.59
28432;BME280;15664;51.302;7.744;2023-02-28T02:13:49;83949.47;;;-146.98;69.73
28432;BME280;15664;51.302;7.744;2023-02-28T02:16:32;83929.09;;;-146.98;70.25
28432;BME280;15664;51.302;7.744;2023-02-28T02:19:16;83931.13;;;-146.98;70.31
28432;BME280;15664;51.302;7.744;2023-02-28T02:25:10;83973.91;;;-146.98;69.95
28432;BME280;15664;51.302;7.744;2023-02-28T02:33:15;84016.69;;;-146.98;69.82
28432;BME280;15664;51.302;7.744;2023-02-28T02:36:05;83992.22;;;-146.98;69.77
28432;BME280;15664;51.302;7.744;2023-02-28T02:41:19;83975.94;;;-146.98;70.04
28432;BME280;15664;51.302;7.744;2023-02-28T02:43:57;83967.78;;;-146.98;70.12
28432;BME280;15664;51.302;7.744;2023-02-28T02:46:33;83967.78;;;-146.98;70.65
28432;BME280;15664;51.302;7.744;2023-02-28T02:49:01;83992.22;;;-146.98;70.75
28432;BME280;15664;51.302;7.744;2023-02-28T02:51:30;83961.69;;;-146.98;70.76
28432;BME280;15664;51.302;7.744;2023-02-28T02:56:33;83945.38;;;-146.98;71.17
28432;BME280;15664;51.302;7.744;2023-02-28T02:59:02;83984.09;;;-146.98;71.15
28432;BME280;15664;51.302;7.744;2023-02-28T03:01:31;83988.16;;;-146.98;71.15
28432;BME280;15664;51.302;7.744;2023-02-28T03:04:00;83971.88;;;-146.98;71.17
28432;BME280;15664;51.302;7.744;2023-02-28T03:06:27;83961.69;;;-146.98;71.38
28432;BME280;15664;51.302;7.744;2023-02-28T03:08:52;83990.19;;;-146.98;71.24
28432;BME280;15664;51.302;7.744;2023-02-28T03:11:18;83994.28;;;-146.98;70.89
28432;BME280;15664;51.302;7.744;2023-02-28T03:19:54;83996.31;;;-146.98;70.02
28432;BME280;15664;51.302;7.744;2023-02-28T03:22:43;83963.72;;;-146.98;69.73
28432;BME280;15664;51.302;7.744;2023-02-28T03:25:24;84026.84;;;-146.98;70.07
28432;BME280;15664;51.302;7.744;2023-02-28T03:30:42;84028.91;;;-146.98;69.44
28432;BME280;15664;51.302;7.744;2023-02-28T03:33:15;83984.09;;;-146.98;69.99
28432;BME280;15664;51.302;7.744;2023-02-28T03:35:47;84000.38;;;-146.98;69.91
28432;BME280;15664;51.302;7.744;2023-02-28T03:38:18;83949.47;;;-146.98;69.79
28432;BME280;15664;51.302;7.744;2023-02-28T03:40:52;83982.03;;;-146.98;69.74
28432;BME280;15664;51.302;7.744;2023-02-28T03:43:23;83994.28;;;-146.98;69.71
28432;BME280;15664;51.302;7.744;2023-02-28T03:45:54;83994.28;;;-146.98;69.80
28432;BME280;15664;51.302;7.744;2023-02-28T03:48:28;83959.63;;;-146.98;69.94
28432;BME280;15664;51.302;7.744;2023-02-28T03:50:58;83994.28;;;-146.98;69.68
28432;BME280;15664;51.302;7.744;2023-02-28T03:53:39;84000.38;;;-146.98;69.68
28432;BME280;15664;51.302;7.744;2023-02-28T03:56:44;83967.78;;;-146.98;69.75
28432;BME280;15664;51.302;7.744;2023-02-28T03:59:20;84035.00;;;-146.98;69.48
28432;BME280;15664;51.302;7.744;2023-02-28T04:01:48;83977.97;;;-146.98;69.50
28432;BME280;15664;51.302;7.744;2023-02-28T04:04:15;83947.41;;;-146.98;69.43
28432;BME280;15664;51.302;7.744;2023-02-28T04:06:43;84063.53;;;-146.98;69.60
28432;BME280;15664;51.302;7.744;2023-02-28T04:09:12;83996.31;;;-146.98;69.74
28432;BME280;15664;51.302;7.744;2023-02-28T04:11:40;83945.38;;;-146.98;69.60
28432;BME280;15664;51.302;7.744;2023-02-28T04:14:07;84018.72;;;-146.98;69.66
28432;BME280;15664;51.302;7.744;2023-02-28T04:16:37;84022.78;;;-146.98;69.33
28432;BME280;15664;51.302;7.744;2023-02-28T04:19:03;84024.81;;;-146.98;69.25
28432;BME280;15664;51.302;7.744;2023-02-28T04:21:32;83984.09;;;-146.98;69.15
28432;BME280;15664;51.302;7.744;2023-02-28T04:23:57;84026.84;;;-146.98;69.18
28432;BME280;15664;51.302;7.744;2023-02-28T04:26:29;84037.03;;;-146.98;69.19
28432;BME280;15664;51.302;7.744;2023-02-28T04:28:55;84016.69;;;-146.98;69.33
28432;BME280;15664;51.302;7.744;2023-02-28T04:31:21;84000.38;;;-146.98;69.31
28432;BME280;15664;51.302;7.744;2023-02-28T04:33:47;84028.91;;;-146.98;69.29
28432;BME280;15664;51.302;7.744;2023-02-28T04:36:12;84012.59;;;-146.98;69.38
28432;BME280;15664;51.302;7.744;2023-02-28T04:38:39;84002.41;;;-146.98;69.11
28432;BME280;15664;51.302;7.744;2023-02-28T04:41:05;84049.25;;;-146.98;68.88
28432;BME280;15664;51.302;7.744;2023-02-28T04:43:31;84000.38;;;-146.98;68.46
28432;BME280;15664;51.302;7.744;2023-02-28T04:45:58;84002.41;;;-146.98;68.22
28432;BME280;15664;51.302;7.744;2023-02-28T04:48:28;84022.78;;;-146.98;68.07
28432;BME280;15664;51.302;7.744;2023-02-28T04:50:54;83992.22;;;-146.98;67.89
28432;BME280;15664;51.302;7.744;2023-02-28T04:53:20;84032.97;;;-146.98;67.71
28432;BME280;15664;51.302;7.744;2023-02-28T04:55:46;84008.53;;;-146.98;67.62
28432;BME280;15664;51.302;7.744;2023-02-28T04:58:13;84004.44;;;-146.98;67.19
28432;BME280;15664;51.302;7.744;2023-02-28T05:00:39;84022.78;;;-146.98;67.17
28432;BME280;15664;51.302;7.744;2023-02-28T05:03:04;84026.84;;;-146.98;66.86
28432;BME280;15664;51.302;7.744;2023-02-28T05:05:30;84035.00;;;-146.98;66.74
28432;BME280;15664;51.302;7.744;2023-02-28T05:07:55;84012.59;;;-146.98;66.33
28432;BME280;15664;51.302;7.744;2023-02-28T05:10:22;84065.56;;;-146.98;66.43
28432;BME280;15664;51.302;7.744;2023-02-28T05:12:47;84024.81;;;-146.98;66.65
28432;BME280;15664;51.302;7.744;2023-02-28T05:15:14;84014.63;;;-146.98;66.83
28432;BME280;15664;51.302;7.744;2023-02-28T05:17:40;84037.03;;;-146.98;67.02
28432;BME280;15664;51.302;7.744;2023-02-28T05:20:06;84037.03;;;-146.98;67.20
28432;BME280;15664;51.302;7.744;2023-02-28T05:22:32;84012.59;;;-146.98;66.83
28432;BME280;15664;51.302;7.744;2023-02-28T05:24:58;84004.44;;;-146.98;66.86
28432;BME280;15664;51.302;7.744;2023-02-28T05:27:23;84028.91;;;-146.98;66.90
28432;BME280;15664;51.302;7.744;2023-02-28T05:29:49;84028.91;;;-146.98;67.10
28432;BME280;15664;51.302;7.744;2023-02-28T05:32:14;84002.41;;;-146.98;66.47
28432;BME280;15664;51.302;7.744;2023-02-28T05:34:41;83955.56;;;-146.98;66.12
28432;BME280;15664;51.302;7.744;2023-02-28T05:37:12;84028.91;;;-146.98;66.06
28432;BME280;15664;51.302;7.744;2023-02-28T05:39:38;84049.25;;;-146.98;66.06
28432;BME280;15664;51.302;7.744;2023-02-28T05:42:04;84028.91;;;-146.98;65.50
28432;BME280;15664;51.302;7.744;2023-02-28T05:44:30;84018.72;;;-146.98;65.19
28432;BME280;15664;51.302;7.744;2023-02-28T05:46:55;84012.59;;;-146.98;65.13
28432;BME280;15664;51.302;7.744;2023-02-28T05:49:21;84057.41;;;-146.98;65.14
28432;BME280;15664;51.302;7.744;2023-02-28T05:51:47;84096.09;;;-146.98;64.90
28432;BME280;15664;51.302;7.744;2023-02-28T05:54:13;84049.25;;;-146.98;64.54
28432;BME280;15664;51.302;7.744;2023-02-28T05:56:38;84014.63;;;-146.98;64.70
28432;BME280;15664;51.302;7.744;2023-02-28T05:59:06;84069.63;;;-146.98;64.69
28432;BME280;15664;51.302;7.744;2023-02-28T06:01:50;84012.59;;;-146.98;64.62
28432;BME280;15664;51.302;7.744;2023-02-28T06:04:18;84000.38;;;-146.98;64.72
28432;BME280;15664;51.302;7.744;2023-02-28T06:06:45;84024.81;;;-146.98;64.31
28432;BME280;15664;51.302;7.744;2023-02-28T06:09:11;84032.97;;;-146.98;64.19
28432;BME280;15664;51.302;7.744;2023-02-28T06:11:37;83963.72;;;-146.98;63.95
28432;BME280;15664;51.302;7.744;2023-02-28T06:14:03;84000.38;;;-146.98;64.08
28432;BME280;15664;51.302;7.744;2023-02-28T06:16:29;84041.13;;;-146.98;63.73
28432;BME280;15664;51.302;7.744;2023-02-28T06:19:01;84010.56;;;-146.98;63.35
28432;BME280;15664;51.302;7.744;2023-02-28T06:21:27;84004.44;;;-146.98;63.38
28432;BME280;15664;51.302;7.744;2023-02-28T06:23:53;84028.91;;;-146.98;62.94
28432;BME280;15664;51.302;7.744;2023-02-28T06:26:20;84051.31;;;-146.98;62.87
28432;BME280;15664;51.302;7.744;2023-02-28T06:28:45;83982.03;;;-146.98;62.60
28432;BME280;15664;51.302;7.744;2023-02-28T06:31:14;84004.44;;;-146.98;62.27
28432;BME280;15664;51.302;7.744;2023-02-28T06:33:40;84035.00;;;-146.98;62.25
28432;BME280;15664;51.302;7.744;2023-02-28T06:36:07;84004.44;;;-146.98;62.30
28432;BME280;15664;51.302;7.744;2023-02-28T06:38:33;84055.38;;;-146.98;61.51
28432;BME280;15664;51.302;7.744;2023-02-28T06:41:00;84053.34;;;-146.98;61.43
28432;BME280;15664;51.302;7.744;2023-02-28T06:43:29;83984.09;;;-146.98;61.26
28432;BME280;15664;51.302;7.744;2023-02-28T06:45:56;83945.38;;;-146.98;60.99
28432;BME280;15664;51.302;7.744;2023-02-28T06:48:23;84026.84;;;-146.98;61.17
28432;BME280;15664;51.302;7.744;2023-02-28T06:50:49;84028.91;;;-146.98;61.07
28432;BME280;15664;51.302;7.744;2023-02-28T06:53:14;83971.88;;;-146.98;60.95
28432;BME280;15664;51.302;7.744;2023-02-28T06:55:40;84018.72;;;-146.98;60.32
28432;BME280;15664;51.302;7.744;2023-02-28T06:58:06;83992.22;;;-146.98;60.55
28432;BME280;15664;51.302;7.744;2023-02-28T07:00:44;83977.97;;;-146.98;60.08
28432;BME280;15664;51.302;7.744;2023-02-28T07:03:10;83988.16;;;-146.98;58.83
28432;BME280;15664;51.302;7.744;2023-02-28T07:05:37;83967.78;;;-146.98;57.77
28432;BME280;15664;51.302;7.744;2023-02-28T07:08:03;83935.19;;;-146.98;55.97
28432;BME280;15664;51.302;7.744;2023-02-28T07:10:30;83943.34;;;-146.98;55.18
28432;BME280;15664;51.302;7.744;2023-02-28T07:12:55;83912.78;;;-146.98;53.00
28432;BME280;15664;51.302;7.744;2023-02-28T07:15:21;83925.03;;;-146.98;52.27
28432;BME280;15664;51.302;7.744;2023-02-28T07:17:46;83941.31;;;-146.98;50.91
28432;BME280;15664;51.302;7.744;2023-02-28T07:20:12;83890.38;;;-146.98;50.20
28432;BME280;15664;51.302;7.744;2023-02-28T07:22:38;83894.47;;;-146.98;49.41
28432;BME280;15664;51.302;7.744;2023-02-28T07:25:04;83855.75;;;-146.98;48.74
28432;BME280;15664;51.302;7.744;2023-02-28T07:27:30;83829.28;;;-146.98;48.18
28432;BME280;15664;51.302;7.744;2023-02-28T07:29:56;83823.19;;;-146.98;48.30
28432;BME280;15664;51.302;7.744;2023-02-28T07:32:22;83843.53;;;-146.98;47.76
28432;BME280;15664;51.302;7.744;2023-02-28T07:34:47;83823.19;;;-146.98;47.34
28432;BME280;15664;51.302;7.744;2023-02-28T07:37:14;83768.19;;;-146.98;47.27
28432;BME280;15664;51.302;7.744;2023-02-28T07:39:40;83798.75;;;-146.98;46.52
28432;BME280;15664;51.302;7.744;2023-02-28T07:42:08;83776.34;;;-146.98;46.08
28432;BME280;15664;51.302;7.744;2023-02-28T07:44:39;83745.78;;;-146.98;45.76
28432;BME280;15664;51.302;7.744;2023-02-28T07:47:09;83703.00;;;-146.98;45.49
28432;BME280;15664;51.302;7.744;2023-02-28T07:49:36;83760.03;;;-146.98;44.62
28432;BME280;15664;51.302;7.744;2023-02-28T07:52:05;83705.03;;;-146.98;44.22
28432;BME280;15664;51.302;7.744;2023-02-28T07:54:31;83715.22;;;-146.98;43.12
28432;BME280;15664;51.302;7.744;2023-02-28T07:56:57;83747.81;;;-146.98;43.30
28432;BME280;15664;51.302;7.744;2023-02-28T07:59:22;83725.41;;;-146.98;43.59
28432;BME280;15664;51.302;7.744;2023-02-28T08:01:48;83676.53;;;-146.98;43.44
28432;BME280;15664;51.302;7.744;2023-02-28T08:04:18;83703.00;;;-146.98;43.35
28432;BME280;15664;51.302;7.744;2023-02-28T08:06:44;83698.94;;;-146.98;42.77
28432;BME280;15664;51.302;7.744;2023-02-28T08:09:09;83660.25;;;-146.98;42.35
28432;BME280;15664;51.302;7.744;2023-02-28T08:11:34;83631.72;;;-146.98;42.34
28432;BME280;15664;51.302;7.744;2023-02-28T08:14:00;83641.91;;;-146.98;42.35
28432;BME280;15664;51.302;7.744;2023-02-28T08:16:26;83676.53;;;-146.98;41.96
28432;BME280;15664;51.302;7.744;2023-02-28T08:18:52;83694.88;;;-146.98;42.17
28432;BME280;15664;51.302;7.744;2023-02-28T08:21:18;83658.19;;;-146.98;42.34
28432;BME280;15664;51.302;7.744;2023-02-28T08:23:47;83680.59;;;-146.98;42.62
28432;BME280;15664;51.302;7.744;2023-02-28T08:26:13;83670.44;;;-146.98;42.39
28432;BME280;15664;51.302;7.744;2023-02-28T08:28:39;83641.91;;;-146.98;42.31
28432;BME280;15664;51.302;7.744;2023-02-28T08:31:12;83648.03;;;-146.98;41.58
28432;BME280;15664;51.302;7.744;2023-02-28T08:33:39;83607.28;;;-146.98;41.18
28432;BME280;15664;51.302;7.744;2023-02-28T08:36:05;83637.84;;;-146.98;41.22
28432;BME280;15664;51.302;7.744;2023-02-28T08:38:30;83654.13;;;-146.98;41.28
28432;BME280;15664;51.302;7.744;2023-02-28T08:41:01;83645.97;;;-146.98;41.31
28432;BME280;15664;51.302;7.744;2023-02-28T08:43:27;83635.81;;;-146.98;41.58
28432;BME280;15664;51.302;7.744;2023-02-28T08:45:53;83654.13;;;-146.98;41.26
28432;BME280;15664;51.302;7.744;2023-02-28T08:48:19;83597.09;;;-146.98;41.49
28432;BME280;15664;51.302;7.744;2023-02-28T08:50:55;83641.91;;;-146.98;41.50
28432;BME280;15664;51.302;7.744;2023-02-28T08:53:20;83613.41;;;-146.98;41.65
28432;BME280;15664;51.302;7.744;2023-02-28T08:55:46;83615.44;;;-146.98;41.22
28432;BME280;15664;51.302;7.744;2023-02-28T08:58:11;83607.28;;;-146.98;41.67
28432;BME280;15664;51.302;7.744;2023-02-28T09:00:37;83562.47;;;-146.98;41.39
28432;BME280;15664;51.302;7.744;2023-02-28T09:03:02;83570.63;;;-146.98;40.89
28432;BME280;15664;51.302;7.744;2023-02-28T09:05:28;83568.59;;;-146.98;40.44
28432;BME280;15664;51.302;7.744;2023-02-28T09:07:55;83574.69;;;-146.98;40.69
28432;BME280;15664;51.302;7.744;2023-02-28T09:10:20;83603.22;;;-146.98;41.86
28432;BME280;15664;51.302;7.744;2023-02-28T09:12:46;83586.91;;;-146.98;42.86
28432;BME280;15664;51.302;7.744;2023-02-28T09:15:12;83680.59;;;-146.98;43.17
28432;BME280;15664;51.302;7.744;2023-02-28T09:17:38;83729.50;;;-146.98;43.98
28432;BME280;15664;51.302;7.744;2023-02-28T09:20:04;83688.75;;;-146.98;44.48
28432;BME280;15664;51.302;7.744;2023-02-28T09:22:30;83709.13;;;-146.98;44.88
28432;BME280;15664;51.302;7.744;2023-02-28T09:24:56;83758.00;;;-146.98;45.68
28432;BME280;15664;51.302;7.744;2023-02-28T09:27:21;83690.78;;;-146.98;45.79
28432;BME280;15664;51.302;7.744;2023-02-28T09:29:47;83698.94;;;-146.98;44.91
28432;BME280;15664;51.302;7.744;2023-02-28T09:32:12;83707.09;;;-146.98;44.62
28432;BME280;15664;51.302;7.744;2023-02-28T09:34:38;83715.22;;;-146.98;44.68
28432;BME280;15664;51.302;7.744;2023-02-28T09:37:03;83662.28;;;-146.98;44.27
28432;BME280;15664;51.302;7.744;2023-02-28T09:39:29;83601.19;;;-146.98;42.19
28432;BME280;15664;51.302;7.744;2023-02-28T09:41:55;83544.16;;;-146.98;40.26
28432;BME280;15664;51.302;7.744;2023-02-28T09:44:36;83613.41;;;-146.98;39.30
28432;BME280;15664;51.302;7.744;2023-02-28T09:47:32;83586.91;;;-146.98;40.81
28432;BME280;15664;51.302;7.744;2023-02-28T09:50:11;83674.50;;;-146.98;40.71
28432;BME280;15664;51.302;7.744;2023-02-28T09:52:42;83680.59;;;-146.98;41.21
28432;BME280;15664;51.302;7.744;2023-02-28T09:55:23;83723.38;;;-146.98;41.84
28432;BME280;15664;51.302;7.744;2023-02-28T09:57:50;83670.44;;;-146.98;42.13
28432;BME280;15664;51.302;7.744;2023-02-28T10:00:21;83664.31;;;-146.98;42.12
28432;BME280;15664;51.302;7.744;2023-02-28T10:05:56;83670.44;;;-146.98;42.29
28432;BME280;15664;51.302;7.744;2023-02-28T10:08:32;83635.81;;;-146.98;41.40
28432;BME280;15664;51.302;7.744;2023-02-28T10:11:01;83621.53;;;-146.98;41.48
28432;BME280;15664;51.302;7.744;2023-02-28T10:16:46;83597.09;;;-146.98;41.30
28432;BME280;15664;51.302;7.744;2023-02-28T10:19:38;83621.53;;;-146.98;40.96
28432;BME280;15664;51.302;7.744;2023-02-28T10:22:17;83637.84;;;-146.98;41.48
28432;BME280;15664;51.302;7.744;2023-02-28T10:24:49;83707.09;;;-146.98;41.42
28432;BME280;15664;51.302;7.744;2023-02-28T10:29:49;83619.50;;;-146.98;40.92
28432;BME280;15664;51.302;7.744;2023-02-28T10:32:17;83635.81;;;-146.98;39.97
28432;BME280;15664;51.302;7.744;2023-02-28T10:34:43;83546.19;;;-146.98;39.54
28432;BME280;15664;51.302;7.744;2023-02-28T10:37:10;83517.69;;;-146.98;39.37
28432;BME280;15664;51.302;7.744;2023-02-28T10:39:42;83495.28;;;-146.98;38.26
28432;BME280;15664;51.302;7.744;2023-02-28T10:42:28;83444.34;;;-146.98;37.27
28432;BME280;15664;51.302;7.744;2023-02-28T10:45:06;83385.31;;;-146.98;37.17
28432;BME280;15664;51.302;7.744;2023-02-28T10:47:34;83407.69;;;-146.98;36.39
28432;BME280;15664;51.302;7.744;2023-02-28T10:50:01;83462.69;;;-146.98;36.88
28432;BME280;15664;51.302;7.744;2023-02-28T10:52:37;83466.75;;;-146.98;36.18
28432;BME280;15664;51.302;7.744;2023-02-28T10:55:16;83430.09;;;-146.98;36.37
28432;BME280;15664;51.302;7.744;2023-02-28T10:57:45;83454.53;;;-146.98;36.51
28432;BME280;15664;51.302;7.744;2023-02-28T11:02:39;83419.91;;;-146.98;36.60
28432;BME280;15664;51.302;7.744;2023-02-28T11:05:30;83424.00;;;-146.98;35.66
28432;BME280;15664;51.302;7.744;2023-02-28T11:08:22;83381.22;;;-146.98;35.56
28432;BME280;15664;51.302;7.744;2023-02-28T11:10:58;83362.91;;;-146.98;35.68
28432;BME280;15664;51.302;7.744;2023-02-28T11:13:27;83364.94;;;-146.98;35.16
28432;BME280;15664;51.302;7.744;2023-02-28T11:15:57;83326.25;;;-146.98;34.84
28432;BME280;15664;51.302;7.744;2023-02-28T11:20:53;83303.84;;;-146.98;34.60
28432;BME280;15664;51.302;7.744;2023-02-28T11:23:25;83305.88;;;-146.98;35.19
28432;BME280;15664;51.302;7.744;2023-02-28T11:25:53;83297.72;;;-146.98;34.73
28432;BME280;15664;51.302;7.744;2023-02-28T11:28:33;83259.03;;;-146.98;33.73
28432;BME280;15664;51.302;7.744;2023-02-28T11:33:47;83222.38;;;-146.98;33.95
28432;BME280;15664;51.302;7.744;2023-02-28T11:36:21;83242.75;;;-146.98;33.67
28432;BME280;15664;51.302;7.744;2023-02-28T11:38:50;83226.44;;;-146.98;33.64
28432;BME280;15664;51.302;7.744;2023-02-28T11:44:13;83234.59;;;-146.98;33.11
28432;BME280;15664;51.302;7.744;2023-02-28T11:46:47;83220.34;;;-146.98;33.35
28432;BME280;15664;51.302;7.744;2023-02-28T11:55:15;83132.78;;;-146.98;31.99
28432;BME280;15664;51.302;7.744;2023-02-28T11:58:05;83116.50;;;-146.98;32.41
28432;BME280;15664;51.302;7.744;2023-02-28T12:03:39;83063.53;;;-146.98;32.29
28432;BME280;15664;51.302;7.744;2023-02-28T12:11:31;83140.91;;;-146.98;32.35
28432;BME280;15664;51.302;7.744;2023-02-28T12:14:18;83185.72;;;-146.98;33.25
28432;BME280;15664;51.302;7.744;2023-02-28T12:17:03;83045.22;;;-146.98;31.83
28432;BME280;15664;51.302;7.744;2023-02-28T12:19:42;83030.97;;;-146.98;32.00
28432;BME280;15664;51.302;7.744;2023-02-28T12:27:41;83039.09;;;-146.98;32.28
28432;BME280;15664;51.302;7.744;2023-02-28T12:30:16;83026.88;;;-146.98;32.27
28432;BME280;15664;51.302;7.744;2023-02-28T12:32:53;83092.06;;;-146.98;32.57
28432;BME280;15664;51.302;7.744;2023-02-28T12:35:33;83071.69;;;-146.98;32.23
28432;BME280;15664;51.302;7.744;2023-02-28T12:38:29;83041.13;;;-146.98;31.71
28432;BME280;15664;51.302;7.744;2023-02-28T12:41:00;83020.78;;;-146.98;32.71
28432;BME280;15664;51.302;7.744;2023-02-28T12:43:32;83030.97;;;-146.98;31.98
28432;BME280;15664;51.302;7.744;2023-02-28T12:46:02;83006.53;;;-146.98;31.20
28432;BME280;15664;51.302;7.744;2023-02-28T12:48:45;83053.34;;;-146.98;31.48
28432;BME280;15664;51.302;7.744;2023-02-28T12:51:12;82949.50;;;-146.98;31.43
28432;BME280;15664;51.302;7.744;2023-02-28T12:56:53;82847.69;;;-146.98;29.53
28432;BME280;15664;51.302;7.744;2023-02-28T12:59:38;82831.41;;;-146.98;28.83
28432;BME280;15664;51.302;7.744;2023-02-28T13:08:04;82914.88;;;-146.98;30.59
28432;BME280;15664;51.302;7.744;2023-02-28T13:10:45;82941.38;;;-146.98;30.62
28432;BME280;15664;51.302;7.744;2023-02-28T13:13:15;82804.94;;;-146.98;30.03
28432;BME280;15664;51.302;7.744;2023-02-28T13:15:57;82806.97;;;-146.98;29.40
28432;BME280;15664;51.302;7.744;2023-02-28T13:18:30;82823.25;;;-146.98;29.12
28432;BME280;15664;51.302;7.744;2023-02-28T13:20:56;82921.00;;;-146.98;29.88
28432;BME280;15664;51.302;7.744;2023-02-28T13:23:57;82927.09;;;-146.98;29.96
28432;BME280;15664;51.302;7.744;2023-02-28T13:29:00;82908.78;;;-146.98;29.95
28432;BME280;15664;51.302;7.744;2023-02-28T13:31:27;82902.66;;;-146.98;30.41
28432;BME280;15664;51.302;7.744;2023-02-28T13:36:27;82949.50;;;-146.98;30.89
28432;BME280;15664;51.302;7.744;2023-02-28T13:38:56;82878.22;;;-146.98;29.98
28432;BME280;15664;51.302;7.744;2023-02-28T13:46:24;82880.28;;;-146.98;29.83
28432;BME280;15664;51.302;7.744;2023-02-28T13:48:49;82855.84;;;-146.98;29.77
28432;BME280;15664;51.302;7.744;2023-02-28T13:51:37;82792.72;;;-146.98;29.11
28432;BME280;15664;51.302;7.744;2023-02-28T13:54:23;82809.00;;;-146.98;29.19
28432;BME280;15664;51.302;7.744;2023-02-28T13:59:46;82747.91;;;-146.98;28.94
28432;BME280;15664;51.302;7.744;2023-02-28T14:05:25;82697.00;;;-146.98;28.58
28432;BME280;15664;51.302;7.744;2023-02-28T14:07:55;82741.81;;;-146.98;29.04
28432;BME280;15664;51.302;7.744;2023-02-28T14:10:35;82823.25;;;-146.98;29.60
28432;BME280;15664;51.302;7.744;2023-02-28T14:13:12;82823.25;;;-146.98;29.52
28432;BME280;15664;51.302;7.744;2023-02-28T14:15:39;82847.69;;;-146.98;30.17
28432;BME280;15664;51.302;7.744;2023-02-28T14:18:28;82874.16;;;-146.98;30.07
28432;BME280;15664;51.302;7.744;2023-02-28T14:20:59;82859.91;;;-146.98;30.27